createdAt,value
2019-05-05T00:00:39.564Z,100.00
2019-05-05T00:03:21.671Z,100.00
2019-05-05T00:05:50.583Z,100.00
2019-05-05T00:08:19.608Z,100.00
2019-05-05T00:10:57.251Z,100.00
2019-05-05T00:13:36.183Z,100.00
2019-05-05T00:16:16.527Z,100.00
2019-05-05T00:18:45.536Z,100.00
2019-05-05T00:21:15.093Z,100.00
2019-05-05T00:23:45.096Z,100.00
2019-05-05T00:26:14.915Z,100.00
2019-05-05T00:28:44.784Z,100.00
2019-05-05T00:31:15.030Z,100.00
2019-05-05T00:33:44.900Z,100.00
2019-05-05T00:36:14.550Z,100.00
2019-05-05T00:38:44.510Z,100.00
2019-05-05T00:41:14.828Z,100.00
2019-05-05T00:43:45.148Z,100.00
2019-05-05T00:46:20.213Z,100.00
2019-05-05T00:48:57.567Z,100.00
2019-05-05T00:51:26.224Z,100.00
2019-05-05T00:53:55.476Z,100.00
2019-05-05T00:56:25.102Z,100.00
2019-05-05T00:58:58.196Z,100.00
2019-05-05T01:01:51.587Z,100.00
2019-05-05T01:04:25.376Z,100.00
2019-05-05T01:06:54.460Z,100.00
2019-05-05T01:09:25.191Z,100.00
2019-05-05T01:11:55.017Z,100.00
2019-05-05T01:14:24.954Z,100.00
2019-05-05T01:16:54.631Z,100.00
2019-05-05T01:19:24.293Z,100.00
2019-05-05T01:21:54.425Z,100.00
2019-05-05T01:24:24.883Z,100.00
2019-05-05T01:26:55.080Z,100.00
2019-05-05T01:29:25.235Z,100.00
2019-05-05T01:31:55.211Z,100.00
2019-05-05T01:34:28.771Z,100.00
2019-05-05T01:37:04.784Z,100.00
2019-05-05T01:39:51.027Z,100.00
2019-05-05T01:42:19.662Z,100.00
2019-05-05T01:44:48.370Z,100.00
2019-05-05T01:47:17.392Z,100.00
2019-05-05T01:49:46.029Z,100.00
2019-05-05T01:52:15.014Z,100.00
2019-05-05T01:54:44.994Z,100.00
2019-05-05T01:57:14.779Z,100.00
2019-05-05T01:59:44.750Z,100.00
2019-05-05T02:02:14.620Z,100.00
2019-05-05T02:04:44.782Z,100.00
2019-05-05T02:07:14.477Z,100.00
2019-05-05T02:09:44.901Z,100.00
2019-05-05T02:12:15.779Z,100.00
2019-05-05T02:14:44.621Z,100.00
2019-05-05T02:17:14.421Z,100.00
2019-05-05T02:19:44.373Z,100.00
2019-05-05T02:22:14.669Z,100.00
2019-05-05T02:24:44.406Z,100.00
2019-05-05T02:27:14.603Z,100.00
2019-05-05T02:29:51.651Z,100.00
2019-05-05T02:32:29.781Z,100.00
2019-05-05T02:34:59.407Z,100.00
2019-05-05T02:37:28.124Z,100.00
2019-05-05T02:40:02.718Z,100.00
2019-05-05T02:42:27.631Z,100.00
2019-05-05T02:44:56.895Z,100.00
2019-05-05T02:47:35.021Z,100.00
2019-05-05T02:50:05.545Z,100.00
2019-05-05T02:52:35.558Z,100.00
2019-05-05T02:55:04.639Z,100.00
2019-05-05T02:57:34.647Z,100.00
2019-05-05T03:00:25.755Z,100.00
2019-05-05T03:02:55.277Z,100.00
2019-05-05T03:05:23.919Z,100.00
2019-05-05T03:07:54.328Z,100.00
2019-05-05T03:10:24.608Z,100.00
2019-05-05T03:12:54.384Z,100.00
2019-05-05T03:15:28.438Z,100.00
2019-05-05T03:17:57.086Z,100.00
2019-05-05T03:20:25.715Z,100.00
2019-05-05T03:22:54.378Z,100.00
2019-05-05T03:25:24.163Z,100.00
2019-05-05T03:27:54.468Z,100.00
2019-05-05T03:30:26.112Z,100.00
2019-05-05T03:32:55.864Z,100.00
2019-05-05T03:35:24.851Z,100.00
2019-05-05T03:37:54.475Z,100.00
2019-05-05T03:40:27.543Z,100.00
2019-05-05T03:43:00.661Z,100.00
2019-05-05T03:45:46.207Z,100.00
2019-05-05T03:48:14.845Z,100.00
2019-05-05T03:50:44.622Z,100.00
2019-05-05T03:53:14.006Z,100.00
2019-05-05T03:55:43.933Z,100.00
2019-05-05T03:58:14.516Z,100.00
2019-05-05T04:01:11.567Z,100.00
2019-05-05T04:03:40.247Z,100.00
2019-05-05T04:06:08.900Z,100.00
2019-05-05T04:08:37.546Z,100.00
2019-05-05T04:11:06.239Z,100.00
2019-05-05T04:13:35.962Z,100.00
2019-05-05T04:16:28.822Z,100.00
2019-05-05T04:19:01.116Z,100.00
2019-05-05T04:21:33.698Z,100.00
2019-05-05T04:24:00.215Z,100.00
2019-05-05T04:26:29.223Z,100.00
2019-05-05T04:28:57.884Z,100.00
2019-05-05T04:31:26.868Z,100.00
2019-05-05T04:33:55.533Z,100.00
2019-05-05T04:36:24.179Z,100.00
2019-05-05T04:38:54.560Z,100.00
2019-05-05T04:41:24.548Z,100.00
2019-05-05T04:43:54.820Z,100.00
2019-05-05T04:46:24.528Z,100.00
2019-05-05T04:49:04.146Z,100.00
2019-05-05T04:51:47.008Z,100.00
2019-05-05T04:54:15.932Z,100.00
2019-05-05T04:56:44.859Z,100.00
2019-05-05T04:59:14.408Z,100.00
2019-05-05T05:01:44.020Z,100.00
2019-05-05T05:04:37.067Z,100.00
2019-05-05T05:07:05.874Z,100.00
2019-05-05T05:09:34.518Z,100.00
2019-05-05T05:12:04.033Z,100.00
2019-05-05T05:14:33.758Z,100.00
2019-05-05T05:17:05.097Z,100.00
2019-05-05T05:19:33.730Z,100.00
2019-05-05T05:22:04.926Z,100.00
2019-05-05T05:24:34.618Z,100.00
2019-05-05T05:27:05.053Z,100.00
2019-05-05T05:29:34.586Z,100.00
2019-05-05T05:32:04.183Z,100.00
2019-05-05T05:34:34.437Z,100.00
2019-05-05T05:37:04.212Z,100.00
2019-05-05T05:39:45.013Z,100.00
2019-05-05T05:42:13.811Z,100.00
2019-05-05T05:45:10.736Z,100.00
2019-05-05T05:47:57.147Z,100.00
2019-05-05T05:50:33.911Z,100.00
2019-05-05T05:53:04.688Z,100.00
2019-05-05T05:55:34.283Z,100.00
2019-05-05T05:58:04.861Z,100.00
2019-05-05T06:00:34.404Z,100.00
2019-05-05T06:03:04.057Z,100.00
2019-05-05T06:05:34.435Z,100.00
2019-05-05T06:08:04.743Z,100.00
2019-05-05T06:10:33.971Z,100.00
2019-05-05T06:13:04.262Z,100.00
2019-05-05T06:15:34.140Z,100.00
2019-05-05T06:18:04.646Z,100.00
2019-05-05T06:20:34.453Z,100.00
2019-05-05T06:23:04.202Z,100.00
2019-05-05T06:25:34.243Z,100.00
2019-05-05T06:28:04.381Z,100.00
2019-05-05T06:30:33.793Z,100.00
2019-05-05T06:33:04.879Z,100.00
2019-05-05T06:35:53.688Z,100.00
2019-05-05T06:38:24.214Z,100.00
2019-05-05T06:41:07.490Z,100.00
2019-05-05T06:44:10.172Z,100.00
2019-05-05T06:46:57.884Z,100.00
2019-05-05T06:49:26.607Z,100.00
2019-05-05T06:51:56.246Z,100.00
2019-05-05T06:54:25.001Z,100.00
2019-05-05T06:56:53.928Z,100.00
2019-05-05T06:59:24.340Z,100.00
2019-05-05T07:01:53.660Z,100.00
2019-05-05T07:04:24.380Z,100.00
2019-05-05T07:06:56.281Z,100.00
2019-05-05T07:09:24.444Z,100.00
2019-05-05T07:11:54.234Z,100.00
2019-05-05T07:14:23.686Z,100.00
2019-05-05T07:16:54.363Z,100.00
2019-05-05T07:19:23.935Z,100.00
2019-05-05T07:21:53.918Z,100.00
2019-05-05T07:24:23.898Z,100.00
2019-05-05T07:26:54.113Z,100.00
2019-05-05T07:29:26.029Z,100.00
2019-05-05T07:31:55.026Z,100.00
2019-05-05T07:34:28.200Z,100.00
2019-05-05T07:37:00.127Z,100.00
2019-05-05T07:39:34.139Z,100.00
2019-05-05T07:42:05.465Z,100.00
2019-05-05T07:44:39.280Z,100.00
2019-05-05T07:47:09.847Z,95.66
2019-05-05T07:49:44.031Z,93.34
2019-05-05T07:52:18.729Z,92.38
2019-05-05T07:54:50.722Z,94.54
2019-05-05T07:57:24.983Z,86.02
2019-05-05T08:00:01.590Z,84.08
2019-05-05T08:02:33.918Z,87.32
2019-05-05T08:05:04.704Z,88.97
2019-05-05T08:07:35.615Z,81.90
2019-05-05T08:10:06.322Z,81.00
2019-05-05T08:12:36.901Z,70.08
2019-05-05T08:15:07.883Z,68.54
2019-05-05T08:18:10.639Z,67.30
2019-05-05T08:20:44.486Z,63.65
2019-05-05T08:23:31.841Z,72.24
2019-05-05T08:26:06.102Z,66.29
2019-05-05T08:29:04.540Z,70.55
2019-05-05T08:31:50.822Z,65.76
2019-05-05T08:34:21.857Z,64.26
2019-05-05T08:36:53.840Z,63.97
2019-05-05T08:39:24.368Z,56.41
2019-05-05T08:41:53.845Z,56.88
2019-05-05T08:44:23.656Z,61.12
2019-05-05T08:46:53.784Z,60.23
2019-05-05T08:49:24.451Z,60.39
2019-05-05T08:51:54.703Z,58.55
2019-05-05T08:54:23.906Z,65.53
2019-05-05T08:56:54.819Z,63.13
2019-05-05T08:59:24.209Z,64.89
2019-05-05T09:01:54.164Z,64.03
2019-05-05T09:04:24.666Z,61.52
2019-05-05T09:06:54.600Z,56.41
2019-05-05T09:09:24.154Z,54.01
2019-05-05T09:11:54.240Z,51.90
2019-05-05T09:14:24.002Z,50.92
2019-05-05T09:16:53.715Z,48.50
2019-05-05T09:19:23.979Z,49.58
2019-05-05T09:21:54.121Z,53.58
2019-05-05T09:24:34.283Z,50.55
2019-05-05T09:27:07.518Z,49.65
2019-05-05T09:29:38.431Z,49.02
2019-05-05T09:32:07.168Z,47.84
2019-05-05T09:34:35.813Z,50.56
2019-05-05T09:37:05.254Z,51.45
2019-05-05T09:39:34.609Z,53.93
2019-05-05T09:42:04.098Z,52.91
2019-05-05T09:44:34.597Z,54.95
2019-05-05T09:47:04.747Z,56.11
2019-05-05T09:49:35.010Z,54.68
2019-05-05T09:52:05.204Z,52.68
2019-05-05T09:54:34.542Z,53.09
2019-05-05T09:57:04.503Z,49.85
2019-05-05T09:59:34.639Z,48.64
2019-05-05T10:02:04.408Z,43.97
2019-05-05T10:04:34.557Z,44.10
2019-05-05T10:07:04.402Z,45.16
2019-05-05T10:09:34.500Z,44.06
2019-05-05T10:12:04.715Z,45.81
2019-05-05T10:14:34.229Z,44.28
2019-05-05T10:17:04.897Z,42.45
2019-05-05T10:19:34.638Z,42.87
2019-05-05T10:22:04.066Z,43.27
2019-05-05T10:24:49.139Z,42.31
2019-05-05T10:27:18.985Z,43.32
2019-05-05T10:29:47.715Z,41.60
2019-05-05T10:32:18.334Z,43.17
2019-05-05T10:35:00.375Z,39.28
2019-05-05T10:37:29.451Z,39.03
2019-05-05T10:39:58.324Z,36.43
2019-05-05T10:42:46.069Z,36.33
2019-05-05T10:45:14.852Z,39.57
2019-05-05T10:47:44.057Z,39.40
2019-05-05T10:50:13.884Z,37.08
2019-05-05T10:52:44.268Z,34.30
2019-05-05T10:55:14.563Z,31.04
2019-05-05T10:57:43.916Z,28.60
2019-05-05T11:00:15.489Z,29.22
2019-05-05T11:02:43.440Z,29.92
2019-05-05T11:05:12.590Z,29.55
2019-05-05T11:07:41.617Z,29.27
2019-05-05T11:10:10.377Z,31.27
2019-05-05T11:12:39.211Z,37.48
2019-05-05T11:15:07.936Z,39.58
2019-05-05T11:17:36.583Z,44.48
2019-05-05T11:20:06.124Z,46.27
2019-05-05T11:22:35.859Z,42.71
2019-05-05T11:25:05.862Z,41.53
2019-05-05T11:27:34.821Z,36.29
2019-05-05T11:30:20.834Z,33.05
2019-05-05T11:33:07.288Z,29.65
2019-05-05T11:35:53.893Z,30.47
2019-05-05T11:38:24.583Z,31.43
2019-05-05T11:40:54.680Z,31.68
2019-05-05T11:43:24.645Z,29.86
2019-05-05T11:45:54.451Z,26.02
2019-05-05T11:48:24.058Z,26.40
2019-05-05T11:50:54.241Z,24.88
2019-05-05T11:53:25.147Z,25.33
2019-05-05T11:55:55.127Z,31.81
2019-05-05T11:58:25.101Z,38.47
2019-05-05T12:00:54.605Z,45.76
2019-05-05T12:03:23.505Z,57.23
2019-05-05T12:05:52.220Z,75.23
2019-05-05T12:08:21.026Z,88.03
2019-05-05T12:11:08.916Z,85.90
2019-05-05T12:13:37.699Z,76.16
2019-05-05T12:16:08.138Z,52.81
2019-05-05T12:18:36.871Z,45.36
2019-05-05T12:21:06.392Z,39.01
2019-05-05T12:23:35.266Z,52.14
2019-05-05T12:26:24.391Z,36.04
2019-05-05T12:28:56.444Z,32.29
2019-05-05T12:31:27.037Z,30.18
2019-05-05T12:33:55.780Z,29.43
2019-05-05T12:36:24.500Z,29.58
2019-05-05T12:38:54.704Z,30.44
2019-05-05T12:41:23.992Z,32.19
2019-05-05T12:43:54.821Z,30.96
2019-05-05T12:46:34.614Z,30.14
2019-05-05T12:49:04.875Z,30.38
2019-05-05T12:51:34.332Z,29.80
2019-05-05T12:54:04.522Z,30.62
2019-05-05T12:56:34.127Z,26.98
2019-05-05T12:59:07.467Z,24.84
2019-05-05T13:01:37.778Z,26.06
2019-05-05T13:04:06.576Z,27.91
2019-05-05T13:06:37.012Z,32.29
2019-05-05T13:09:06.937Z,36.20
2019-05-05T13:11:40.180Z,34.75
2019-05-05T13:14:08.879Z,31.53
2019-05-05T13:16:37.538Z,29.58
2019-05-05T13:19:12.219Z,30.34
2019-05-05T13:22:03.660Z,31.06
2019-05-05T13:25:01.673Z,34.07
2019-05-05T13:27:34.806Z,37.14
2019-05-05T13:30:06.024Z,40.88
2019-05-05T13:32:35.925Z,43.81
2019-05-05T13:35:07.293Z,49.23
2019-05-05T13:37:38.237Z,59.00
2019-05-05T13:40:08.618Z,70.75
2019-05-05T13:42:38.449Z,75.03
2019-05-05T13:45:20.265Z,85.28
2019-05-05T13:47:50.267Z,87.23
2019-05-05T13:50:27.598Z,91.27
2019-05-05T13:52:57.463Z,99.48
2019-05-05T13:55:27.135Z,100.00
2019-05-05T13:57:57.095Z,100.00
2019-05-05T14:00:27.027Z,100.00
2019-05-05T14:02:56.947Z,100.00
2019-05-05T14:05:26.676Z,100.00
2019-05-05T14:07:56.857Z,87.96
2019-05-05T14:10:26.958Z,83.45
2019-05-05T14:12:57.846Z,76.26
2019-05-05T14:15:27.972Z,71.54
2019-05-05T14:17:58.295Z,74.76
2019-05-05T14:20:28.099Z,66.90
2019-05-05T14:22:58.076Z,73.58
2019-05-05T14:25:29.528Z,77.36
2019-05-05T14:28:01.115Z,86.93
2019-05-05T14:31:05.551Z,86.93
2019-05-05T14:33:54.297Z,89.75
2019-05-05T14:36:37.791Z,93.31
2019-05-05T14:39:09.443Z,93.66
2019-05-05T14:41:40.816Z,93.99
2019-05-05T14:44:10.561Z,87.10
2019-05-05T14:46:40.210Z,81.05
2019-05-05T14:49:10.023Z,75.35
2019-05-05T14:51:39.763Z,68.69
2019-05-05T14:54:10.853Z,67.61
2019-05-05T14:56:43.884Z,69.16
2019-05-05T14:59:14.229Z,67.82
2019-05-05T15:01:44.927Z,69.23
2019-05-05T15:04:16.501Z,66.36
2019-05-05T15:06:50.703Z,58.60
2019-05-05T15:09:29.343Z,55.52
2019-05-05T15:12:18.440Z,54.92
2019-05-05T15:14:48.121Z,54.65
2019-05-05T15:17:17.923Z,53.43
2019-05-05T15:19:48.000Z,52.52
2019-05-05T15:22:18.004Z,55.43
2019-05-05T15:24:48.736Z,60.77
2019-05-05T15:27:18.523Z,62.52
2019-05-05T15:29:48.372Z,60.33
2019-05-05T15:32:18.681Z,64.88
2019-05-05T15:34:48.421Z,63.69
2019-05-05T15:37:18.498Z,74.39
2019-05-05T15:39:48.358Z,90.79
2019-05-05T15:42:18.081Z,99.01
2019-05-05T15:44:47.850Z,100.00
2019-05-05T15:47:17.676Z,100.00
2019-05-05T15:49:47.340Z,100.00
2019-05-05T15:52:20.072Z,100.00
2019-05-05T15:54:49.454Z,100.00
2019-05-05T15:57:19.729Z,100.00
2019-05-05T15:59:48.531Z,100.00
2019-05-05T16:02:17.172Z,100.00
2019-05-05T16:04:45.947Z,100.00
2019-05-05T16:07:14.925Z,98.92
2019-05-05T16:09:46.731Z,93.32
2019-05-05T16:12:15.095Z,93.35
2019-05-05T16:14:58.764Z,93.44
2019-05-05T16:17:34.147Z,93.44
2019-05-05T16:20:13.894Z,93.69
2019-05-05T16:22:46.738Z,97.03
2019-05-05T16:25:16.198Z,100.00
2019-05-05T16:27:45.214Z,100.00
2019-05-05T16:30:15.075Z,100.00
2019-05-05T16:32:43.788Z,99.81
2019-05-05T16:35:14.365Z,100.00
2019-05-05T16:37:43.137Z,97.20
2019-05-05T16:40:14.274Z,99.26
2019-05-05T16:42:43.698Z,100.00
2019-05-05T16:45:13.686Z,97.99
2019-05-05T16:47:44.815Z,95.38
2019-05-05T16:50:13.693Z,95.19
2019-05-05T16:52:51.642Z,93.21
2019-05-05T16:55:44.779Z,88.49
2019-05-05T16:58:13.920Z,90.35
2019-05-05T17:00:44.154Z,93.62
2019-05-05T17:03:13.487Z,93.04
2019-05-05T17:05:44.034Z,91.33
2019-05-05T17:08:15.071Z,88.70
2019-05-05T17:10:44.133Z,90.88
2019-05-05T17:13:19.724Z,89.24
2019-05-05T17:16:06.659Z,89.56
2019-05-05T17:18:55.209Z,86.69
2019-05-05T17:21:28.079Z,80.80
2019-05-05T17:23:56.826Z,82.57
2019-05-05T17:26:25.493Z,86.60
2019-05-05T17:28:54.224Z,98.67
2019-05-05T17:31:24.371Z,91.44
2019-05-05T17:33:53.570Z,77.17
2019-05-05T17:36:24.149Z,74.05
2019-05-05T17:38:54.343Z,71.66
2019-05-05T17:41:36.248Z,73.50
2019-05-05T17:44:14.076Z,77.92
2019-05-05T17:46:53.824Z,79.92
2019-05-05T17:49:37.937Z,82.68
2019-05-05T17:52:24.892Z,83.97
2019-05-05T17:54:56.462Z,81.72
2019-05-05T17:57:26.168Z,80.42
2019-05-05T17:59:54.816Z,80.20
2019-05-05T18:02:23.712Z,85.90
2019-05-05T18:04:54.083Z,84.72
2019-05-05T18:07:40.399Z,82.00
2019-05-05T18:10:13.607Z,84.30
2019-05-05T18:13:19.531Z,80.80
2019-05-05T18:15:57.075Z,84.25
2019-05-05T18:18:25.732Z,80.17
2019-05-05T18:20:54.392Z,83.48
2019-05-05T18:23:23.487Z,81.14
2019-05-05T18:25:54.711Z,82.20
2019-05-05T18:28:24.687Z,87.03
2019-05-05T18:30:53.987Z,90.31
2019-05-05T18:33:24.537Z,94.12
2019-05-05T18:35:54.024Z,95.27
2019-05-05T18:38:23.621Z,96.45
2019-05-05T18:40:53.416Z,96.09
2019-05-05T18:43:30.366Z,99.08
2019-05-05T18:46:04.549Z,100.00
2019-05-05T18:48:34.488Z,100.00
2019-05-05T18:51:03.925Z,100.00
2019-05-05T18:53:34.139Z,100.00
2019-05-05T18:56:03.762Z,100.00
2019-05-05T18:58:34.163Z,100.00
2019-05-05T19:01:13.923Z,100.00
2019-05-05T19:04:13.752Z,100.00
2019-05-05T19:06:48.213Z,100.00
2019-05-05T19:09:19.860Z,100.00
2019-05-05T19:11:48.503Z,100.00
2019-05-05T19:14:17.139Z,100.00
2019-05-05T19:16:45.783Z,100.00
2019-05-05T19:19:14.795Z,100.00
2019-05-05T19:21:46.765Z,100.00
2019-05-05T19:24:15.743Z,100.00
2019-05-05T19:26:44.393Z,100.00
2019-05-05T19:29:13.575Z,100.00
2019-05-05T19:31:43.824Z,100.00
2019-05-05T19:34:14.571Z,100.00
2019-05-05T19:36:44.923Z,100.00
2019-05-05T19:39:13.834Z,100.00
2019-05-05T19:41:46.563Z,100.00
2019-05-05T19:44:14.673Z,100.00
2019-05-05T19:46:49.408Z,100.00
2019-05-05T19:49:18.735Z,100.00
2019-05-05T19:51:48.765Z,100.00
2019-05-05T19:54:17.466Z,100.00
2019-05-05T19:56:46.884Z,100.00
2019-05-05T19:59:15.535Z,100.00
2019-05-05T20:01:45.067Z,100.00
2019-05-05T20:04:14.655Z,100.00
2019-05-05T20:06:44.182Z,100.00
2019-05-05T20:09:14.364Z,100.00
2019-05-05T20:11:43.873Z,100.00
2019-05-05T20:14:14.845Z,100.00
2019-05-05T20:17:04.270Z,100.00
2019-05-05T20:19:36.800Z,100.00
2019-05-05T20:22:05.559Z,100.00
2019-05-05T20:24:34.195Z,100.00
2019-05-05T20:27:04.535Z,100.00
2019-05-05T20:29:36.756Z,100.00
2019-05-05T20:32:04.385Z,100.00
2019-05-05T20:34:54.052Z,100.00
2019-05-05T20:37:26.859Z,100.00
2019-05-05T20:39:56.341Z,100.00
2019-05-05T20:42:24.983Z,100.00
2019-05-05T20:44:54.444Z,100.00
2019-05-05T20:47:24.203Z,100.00
2019-05-05T20:49:53.942Z,100.00
2019-05-05T20:52:23.696Z,100.00
2019-05-05T20:54:53.731Z,100.00
2019-05-05T20:57:22.623Z,100.00
2019-05-05T20:59:51.349Z,100.00
2019-05-05T21:02:20.030Z,100.00
2019-05-05T21:04:48.766Z,100.00
2019-05-05T21:07:18.099Z,100.00
2019-05-05T21:09:46.776Z,100.00
2019-05-05T21:12:15.424Z,100.00
2019-05-05T21:14:44.689Z,100.00
2019-05-05T21:17:13.747Z,100.00
2019-05-05T21:19:42.655Z,100.00
2019-05-05T21:22:29.543Z,100.00
2019-05-05T21:24:58.567Z,100.00
2019-05-05T21:27:27.215Z,100.00
2019-05-05T21:29:55.865Z,100.00
2019-05-05T21:32:25.402Z,100.00
2019-05-05T21:34:54.404Z,100.00
2019-05-05T21:37:24.940Z,100.00
2019-05-05T21:39:55.137Z,100.00
2019-05-05T21:42:24.198Z,100.00
2019-05-05T21:44:53.906Z,100.00
2019-05-05T21:47:23.974Z,100.00
2019-05-05T21:49:54.243Z,100.00
2019-05-05T21:52:30.562Z,100.00
2019-05-05T21:55:17.335Z,100.00
2019-05-05T21:58:04.343Z,100.00
2019-05-05T22:00:52.074Z,100.00
2019-05-05T22:03:34.767Z,100.00
2019-05-05T22:06:04.890Z,100.00
2019-05-05T22:08:35.044Z,100.00
2019-05-05T22:11:04.289Z,100.00
2019-05-05T22:13:36.208Z,100.00
2019-05-05T22:16:04.032Z,100.00
2019-05-05T22:18:33.174Z,100.00
2019-05-05T22:21:10.160Z,100.00
2019-05-05T22:23:38.804Z,100.00
2019-05-05T22:26:08.407Z,100.00
2019-05-05T22:28:37.067Z,100.00
2019-05-05T22:31:05.699Z,100.00
2019-05-05T22:33:34.336Z,100.00
2019-05-05T22:36:04.478Z,100.00
2019-05-05T22:38:33.919Z,100.00
2019-05-05T22:41:02.960Z,100.00
2019-05-05T22:43:31.611Z,100.00
2019-05-05T22:46:00.251Z,100.00
2019-05-05T22:48:28.901Z,100.00
2019-05-05T22:50:57.531Z,100.00
2019-05-05T22:53:26.670Z,100.00
2019-05-05T22:55:56.563Z,100.00
2019-05-05T22:58:25.541Z,100.00
2019-05-05T23:00:54.890Z,100.00
2019-05-05T23:03:37.475Z,100.00
2019-05-05T23:06:09.701Z,100.00
2019-05-05T23:08:38.344Z,100.00
2019-05-05T23:11:06.984Z,100.00
2019-05-05T23:13:35.620Z,100.00
2019-05-05T23:16:14.679Z,100.00
2019-05-05T23:18:44.293Z,100.00
2019-05-05T23:21:19.518Z,100.00
2019-05-05T23:23:56.271Z,100.00
2019-05-05T23:26:26.233Z,100.00
2019-05-05T23:28:54.940Z,100.00
2019-05-05T23:31:24.102Z,100.00
2019-05-05T23:33:54.720Z,100.00
2019-05-05T23:36:24.207Z,100.00
2019-05-05T23:38:54.884Z,100.00
2019-05-05T23:41:23.904Z,100.00
2019-05-05T23:43:54.466Z,100.00
2019-05-05T23:46:24.143Z,100.00
2019-05-05T23:48:54.513Z,100.00
2019-05-05T23:51:24.271Z,100.00
2019-05-05T23:53:54.980Z,100.00
2019-05-05T23:56:24.569Z,100.00
2019-05-05T23:58:55.011Z,100.00
